»·PEaware :: AWE1564 KGJT-KASE

AWE1564 :: KGJT-KASE

FLIGHT INFORMATION

Flight Status: Arrived
Operator:
US Airways
More flights by this operator :: More flights under this callsign
Pilot: Drew L. (13237)
Aircraft: AIRBUS A320
(A320)
More flights by this aircraft type
Origin: KGJT Walker
United States
Destination: KASE Aspen-Pitkin Co/Sardy
United States
More flights between these airports :: More routes between these airports
Route: +GJT7 DIRDY PITMN DBL
File this flight plan on PilotEdge
Remarks: PBN / A1B1C1D1O1S1 DOF / 180104 REG / N320SB OPR / AWE PER / C RMK / TCAS SIMBRIEF
Altitude:
(Current/Filed)
19,000ft
Speed:
(Current/Filed)
382kts
Departed: 03-Jan-18 05:56 PM
Arrived: 03-Jan-18 06:30 PM
Distance/Time
Traveled:
77nm/0:34
Distance/Time
To Go:
Arrived

Flight Plot

Page will automatically refresh every two minutes.

Flight plan parsing failed; only flown route is shown


Map Options




Map Legend


Flown Route
Filed Route
Departure Airport
Arrival Airport
Navaid (VOR, NDB)
Fix

Horizontal Profiles

Position Reports

Time Latitude Longitude Heading Altitude Ground
Speed
03-Jan-18 17:28 39.122834 -108.528211 254 4866ft 0kts
03-Jan-18 17:29 39.122834 -108.528211 254 4866ft 0kts
03-Jan-18 17:30 39.122834 -108.528211 254 4866ft 0kts
03-Jan-18 17:31 39.122834 -108.528211 254 4866ft 0kts
03-Jan-18 17:32 39.122834 -108.528211 254 4866ft 0kts
03-Jan-18 17:33 39.122834 -108.528211 254 4866ft 0kts
03-Jan-18 17:34 39.122834 -108.528211 254 4866ft 0kts
03-Jan-18 17:35 39.122834 -108.528211 254 4866ft 0kts
03-Jan-18 17:36 39.122834 -108.528211 254 4866ft 0kts
03-Jan-18 17:37 39.122834 -108.528211 254 4866ft 0kts
03-Jan-18 17:38 39.122834 -108.528211 254 4866ft 0kts
03-Jan-18 17:39 39.122834 -108.528211 254 4866ft 0kts
03-Jan-18 17:40 39.122834 -108.528211 254 4866ft 0kts
03-Jan-18 17:41 39.122834 -108.528211 254 4866ft 0kts
03-Jan-18 17:42 39.122834 -108.528211 254 4866ft 0kts
03-Jan-18 17:43 39.122834 -108.528211 254 4866ft 0kts
03-Jan-18 17:44 39.122834 -108.528211 254 4866ft 0kts
03-Jan-18 17:45 39.122834 -108.528211 254 4866ft 0kts
03-Jan-18 17:46 39.122834 -108.528211 254 4866ft 0kts
03-Jan-18 17:47 39.122834 -108.528211 254 4866ft 0kts
03-Jan-18 17:48 39.122834 -108.528211 254 4866ft 0kts
03-Jan-18 17:49 39.122834 -108.528211 254 4866ft 0kts
03-Jan-18 17:50 39.123161 -108.528254 3 4866ft 0kts
03-Jan-18 17:51 39.123161 -108.528254 3 4866ft 0kts
03-Jan-18 17:52 39.123872 -108.528245 7 4866ft 15kts
03-Jan-18 17:53 39.121116 -108.521527 123 4866ft 27kts
03-Jan-18 17:54 39.117942 -108.515696 105 4866ft 0kts
03-Jan-18 17:55 39.117942 -108.515696 105 4866ft 0kts
03-Jan-18 17:56 39.117942 -108.515696 105 4866ft 0kts
03-Jan-18 17:57 39.117942 -108.515696 105 4866ft 0kts
03-Jan-18 17:58 39.117942 -108.515696 105 4866ft 0kts
03-Jan-18 17:59 39.117942 -108.515696 105 4866ft 0kts
03-Jan-18 18:00 39.117942 -108.515696 105 4866ft 0kts
03-Jan-18 18:01 39.117935 -108.515655 99 4866ft 1kts
03-Jan-18 18:02 39.123115 -108.522749 305 4866ft 137kts
03-Jan-18 18:03 39.153289 -108.586407 291 6311ft 264kts
03-Jan-18 18:04 39.121764 -108.663277 203 7627ft 281kts
03-Jan-18 18:05 39.048184 -108.644801 133 10614ft 296kts
03-Jan-18 18:06 39.032973 -108.536832 88 12061ft 350kts
03-Jan-18 18:07 39.021759 -108.405232 96 13267ft 394kts
03-Jan-18 18:08 39.014013 -108.326561 96 14251ft 403kts
03-Jan-18 18:09 38.998110 -108.167076 96 16930ft 393kts
03-Jan-18 18:10 38.983718 -108.027233 96 18281ft 416kts
03-Jan-18 18:11 38.970522 -107.899625 96 18978ft 440kts
03-Jan-18 18:12 38.952013 -107.721809 96 19366ft 430kts
03-Jan-18 18:13 38.939286 -107.589255 88 19373ft 466kts
03-Jan-18 18:14 38.989023 -107.443499 43 19423ft 455kts
03-Jan-18 18:15 39.081132 -107.332394 39 19293ft 471kts
03-Jan-18 18:16 39.184639 -107.206584 40 18530ft 409kts
03-Jan-18 18:17 39.251113 -107.125588 43 16948ft 389kts
03-Jan-18 18:18 39.331068 -107.055364 20 16051ft 360kts
03-Jan-18 18:19 39.427055 -107.039132 334 15820ft 356kts
03-Jan-18 18:20 39.510685 -107.089703 1 14822ft 318kts
03-Jan-18 18:21 39.559061 -107.024284 89 13810ft 252kts
03-Jan-18 18:22 39.521593 -106.973593 188 13110ft 233kts
03-Jan-18 18:23 39.459424 -106.987628 177 13057ft 226kts
03-Jan-18 18:24 39.401565 -106.966164 159 13065ft 205kts
03-Jan-18 18:25 39.350992 -106.968053 235 13020ft 203kts
03-Jan-18 18:26 39.323887 -107.031397 240 13027ft 202kts
03-Jan-18 18:27 39.330766 -107.091955 343 13021ft 210kts
03-Jan-18 18:28 39.388105 -107.104647 350 13027ft 210kts
03-Jan-18 18:29 39.434304 -107.076889 60 13083ft 202kts
03-Jan-18 18:30 39.446347 -107.011771 126 13077ft 197kts
03-Jan-18 18:31 39.412022 -106.959858 130 13068ft 190kts
03-Jan-18 18:32 39.365831 -106.937132 161 12488ft 186kts
03-Jan-18 18:33 39.317907 -106.914026 160 11385ft 183kts
03-Jan-18 18:34 39.273290 -106.892751 160 9484ft 168kts
03-Jan-18 18:35 39.231602 -106.872863 160 7858ft 144kts
03-Jan-18 18:36 39.217134 -106.865123 53 7846ft 11kts
03-Jan-18 18:37 39.217245 -106.865001 29 7846ft 0kts
03-Jan-18 18:38 39.219241 -106.865817 340 7846ft 21kts
03-Jan-18 18:39 39.222765 -106.867169 50 7846ft 8kts
03-Jan-18 18:40 39.222569 -106.866447 126 7846ft 0kts
03-Jan-18 18:41 39.222569 -106.866447 126 7846ft 0kts
03-Jan-18 18:42 39.222569 -106.866447 126 7846ft 0kts
03-Jan-18 18:43 39.222569 -106.866447 126 7846ft 0kts
03-Jan-18 18:44 39.222569 -106.866447 126 7846ft 0kts
03-Jan-18 18:45 39.222569 -106.866447 126 7846ft 0kts
03-Jan-18 18:46 39.222569 -106.866447 126 7846ft 0kts
03-Jan-18 18:47 39.222569 -106.866447 126 7846ft 0kts

Navigation Log

Ident Type
Flight plan parsing failed, navigation log unavailable